Onyx, California
Current Conditions -  °F | °C
As of 1:56 AM on Thursday 27 Nov 2014 (Local Time) from KNID Reporting Station
Clear Clear  
Wind Chill: 34°   Ceiling: Unl
Heat Index: 39°   Visibility: 10mi
Dew Point: 10°   Wind: 7mph
Humidity: 30%   Direction: 200°SSW
Pressure: 30.28"   Gusts: NA
Location:  35.69°N, 118.22°W
Report Text: KNID 270956Z AUTO 20006KT 10SM CLR 04/M12 A3028 RMK AO2 SLP255 T00391122 $
Loading
Personal Weather Stations






























Interactive Weather Map New forecast layout! Learn more

10-Day Weather Forecast

Advertisements
Track Severe Weather on mobile